createdAt,value
2023-05-14T00:00:20.639Z,64.32
2023-05-14T00:01:20.544Z,64.02
2023-05-14T00:02:20.576Z,64.12
2023-05-14T00:03:20.588Z,64.43
2023-05-14T00:04:20.541Z,64.43
2023-05-14T00:05:20.496Z,64.43
2023-05-14T00:06:20.489Z,64.43
2023-05-14T00:07:20.465Z,64.53
2023-05-14T00:08:20.453Z,64.66
2023-05-14T00:09:20.428Z,64.66
2023-05-14T00:10:20.520Z,64.66
2023-05-14T00:11:20.424Z,64.66
2023-05-14T00:12:20.403Z,64.66
2023-05-14T00:13:20.390Z,64.76
2023-05-14T00:14:20.374Z,64.97
2023-05-14T00:15:20.367Z,64.76
2023-05-14T00:16:20.452Z,64.97
2023-05-14T00:17:20.325Z,65.17
2023-05-14T00:18:20.324Z,64.76
2023-05-14T00:19:20.304Z,64.76
2023-05-14T00:20:20.319Z,64.97
2023-05-14T00:21:20.303Z,64.87
2023-05-14T00:22:20.270Z,65.00
2023-05-14T00:23:20.251Z,65.51
2023-05-14T00:24:20.247Z,65.10
2023-05-14T00:25:20.289Z,64.90
2023-05-14T00:26:20.231Z,64.79
2023-05-14T00:27:20.223Z,65.10
2023-05-14T00:28:20.196Z,65.31
2023-05-14T00:29:20.194Z,65.41
2023-05-14T00:30:20.292Z,65.20
2023-05-14T00:31:20.261Z,65.51
2023-05-14T00:32:20.218Z,65.34
2023-05-14T00:33:20.144Z,65.23
2023-05-14T00:34:20.130Z,65.64
2023-05-14T00:35:20.098Z,65.44
2023-05-14T00:36:20.099Z,65.44
2023-05-14T00:37:20.077Z,65.34
2023-05-14T00:38:20.068Z,65.84
2023-05-14T00:39:20.072Z,65.74
2023-05-14T00:40:20.069Z,65.84
2023-05-14T00:41:20.021Z,65.74
2023-05-14T00:42:20.030Z,65.95
2023-05-14T00:43:20.022Z,66.18
2023-05-14T00:44:20.006Z,66.08
2023-05-14T00:45:19.976Z,65.98
2023-05-14T00:46:20.007Z,66.49
2023-05-14T00:47:19.947Z,66.28
2023-05-14T00:48:19.953Z,66.59
2023-05-14T00:49:19.938Z,66.28
2023-05-14T00:50:19.911Z,66.28
2023-05-14T00:51:19.896Z,66.28
2023-05-14T00:52:19.885Z,66.49
2023-05-14T00:53:19.892Z,66.39
2023-05-14T00:54:19.858Z,66.59
2023-05-14T00:55:19.849Z,66.59
2023-05-14T00:56:19.877Z,67.00
2023-05-14T00:57:19.838Z,66.69
2023-05-14T00:58:19.821Z,67.03
2023-05-14T00:59:19.794Z,67.03
2023-05-14T01:00:19.804Z,67.03
2023-05-14T01:01:19.800Z,67.34
2023-05-14T01:02:19.849Z,67.03
2023-05-14T01:03:19.805Z,67.13
2023-05-14T01:04:19.745Z,67.65
2023-05-14T01:05:19.724Z,67.54
2023-05-14T01:06:19.704Z,67.54
2023-05-14T01:07:19.702Z,67.24
2023-05-14T01:08:19.683Z,67.27
2023-05-14T01:09:19.670Z,67.16
2023-05-14T01:10:19.658Z,67.07
2023-05-14T01:11:19.664Z,66.86
2023-05-14T01:12:19.639Z,67.16
2023-05-14T01:13:19.610Z,67.47
2023-05-14T01:14:19.607Z,67.47
2023-05-14T01:15:19.599Z,67.68
2023-05-14T01:16:19.654Z,67.78
2023-05-14T01:17:19.566Z,67.78
2023-05-14T01:18:19.603Z,67.98
2023-05-14T01:19:19.550Z,67.98
2023-05-14T01:20:19.533Z,67.78
2023-05-14T01:21:19.524Z,68.01
2023-05-14T01:22:19.504Z,68.01
2023-05-14T01:23:19.506Z,67.91
2023-05-14T01:24:19.551Z,68.01
2023-05-14T01:25:19.467Z,68.01
2023-05-14T01:26:19.472Z,68.01
2023-05-14T01:27:19.437Z,67.91
2023-05-14T01:28:19.446Z,68.32
2023-05-14T01:29:19.412Z,68.22
2023-05-14T01:30:19.413Z,68.12
2023-05-14T01:31:19.389Z,68.12
2023-05-14T01:32:19.399Z,68.32
2023-05-14T01:33:19.369Z,68.52
2023-05-14T01:34:19.355Z,68.63
2023-05-14T01:35:19.345Z,68.63
2023-05-14T01:36:19.320Z,68.66
2023-05-14T01:37:19.306Z,68.66
2023-05-14T01:38:19.289Z,68.87
2023-05-14T01:39:19.314Z,69.17
2023-05-14T01:40:19.286Z,69.58
2023-05-14T01:41:19.244Z,68.87
2023-05-14T01:42:19.238Z,69.17
2023-05-14T01:43:19.370Z,69.58
2023-05-14T01:44:19.238Z,69.58
2023-05-14T01:45:19.218Z,69.79
2023-05-14T01:46:19.230Z,69.17
2023-05-14T01:47:19.166Z,69.31
2023-05-14T01:48:19.168Z,69.10
2023-05-14T01:49:19.158Z,69.31
2023-05-14T01:50:19.147Z,69.31
2023-05-14T01:51:19.116Z,69.51
2023-05-14T01:52:19.102Z,69.31
2023-05-14T01:53:19.109Z,69.10
2023-05-14T01:54:19.110Z,69.51
2023-05-14T01:55:19.069Z,69.61
2023-05-14T01:56:19.062Z,69.71
2023-05-14T01:57:19.043Z,69.92
2023-05-14T01:58:19.050Z,70.12
2023-05-14T01:59:19.010Z,70.12
2023-05-14T02:00:19.004Z,70.12
2023-05-14T02:01:19.033Z,70.23
2023-05-14T02:02:18.988Z,70.16
2023-05-14T02:03:18.977Z,70.23
2023-05-14T02:04:19.031Z,70.36
2023-05-14T02:05:18.953Z,70.67
2023-05-14T02:06:18.926Z,70.57
2023-05-14T02:07:18.925Z,70.57
2023-05-14T02:08:18.913Z,70.47
2023-05-14T02:09:18.867Z,70.67
2023-05-14T02:10:26.009Z,70.77
2023-05-14T02:11:25.874Z,70.67
2023-05-14T02:12:25.860Z,70.57
2023-05-14T02:13:25.838Z,70.36
2023-05-14T02:14:18.820Z,70.57
2023-05-14T02:15:18.810Z,70.77
2023-05-14T02:16:18.811Z,70.77
2023-05-14T02:17:18.792Z,70.98
2023-05-14T02:18:18.767Z,70.67
2023-05-14T02:19:18.765Z,70.87
2023-05-14T02:20:18.756Z,71.18
2023-05-14T02:21:18.750Z,71.01
2023-05-14T02:22:18.731Z,71.22
2023-05-14T02:23:19.511Z,70.91
2023-05-14T02:24:18.692Z,71.22
2023-05-14T02:25:18.682Z,71.42
2023-05-14T02:26:18.682Z,71.22
2023-05-14T02:27:18.650Z,71.11
2023-05-14T02:28:18.636Z,70.91
2023-05-14T02:29:18.619Z,71.01
2023-05-14T02:30:18.615Z,70.70
2023-05-14T02:31:18.637Z,71.01
2023-05-14T02:32:18.637Z,71.32
2023-05-14T02:33:18.772Z,71.32
2023-05-14T02:34:18.567Z,71.42
2023-05-14T02:35:18.557Z,71.42
2023-05-14T02:36:18.557Z,71.32
2023-05-14T02:37:18.833Z,71.35
2023-05-14T02:38:18.539Z,71.35
2023-05-14T02:39:18.491Z,71.25
2023-05-14T02:40:18.670Z,71.56
2023-05-14T02:41:18.477Z,71.25
2023-05-14T02:42:18.510Z,71.25
2023-05-14T02:43:18.436Z,71.35
2023-05-14T02:44:18.433Z,71.66
2023-05-14T02:45:18.427Z,71.45
2023-05-14T02:46:18.443Z,71.45
2023-05-14T02:47:18.396Z,71.35
2023-05-14T02:48:18.380Z,71.45
2023-05-14T02:49:18.376Z,71.35
2023-05-14T02:50:18.400Z,71.25
2023-05-14T02:51:18.338Z,71.56
2023-05-14T02:52:18.326Z,71.56
2023-05-14T02:53:18.405Z,71.56
2023-05-14T02:54:18.322Z,71.39
2023-05-14T02:55:18.289Z,71.39
2023-05-14T02:56:18.299Z,71.80
2023-05-14T02:57:18.272Z,71.69
2023-05-14T02:58:18.256Z,72.00
2023-05-14T02:59:18.253Z,72.31
2023-05-14T03:00:18.241Z,72.20
2023-05-14T03:01:18.230Z,72.41
2023-05-14T03:02:18.239Z,72.10
2023-05-14T03:03:18.256Z,72.00
2023-05-14T03:04:18.218Z,72.00
2023-05-14T03:05:18.165Z,71.90
2023-05-14T03:06:18.156Z,72.20
2023-05-14T03:07:18.135Z,72.51
2023-05-14T03:08:18.188Z,72.41
2023-05-14T03:09:18.116Z,72.44
2023-05-14T03:10:18.105Z,72.55
2023-05-14T03:11:18.094Z,72.75
2023-05-14T03:12:18.090Z,72.75
2023-05-14T03:13:18.160Z,72.24
2023-05-14T03:14:18.084Z,72.85
2023-05-14T03:15:18.031Z,72.75
2023-05-14T03:16:18.098Z,72.65
2023-05-14T03:17:18.021Z,72.75
2023-05-14T03:18:18.004Z,72.85
2023-05-14T03:19:17.985Z,72.75
2023-05-14T03:20:17.973Z,72.75
2023-05-14T03:21:17.962Z,72.75
2023-05-14T03:22:17.955Z,72.65
2023-05-14T03:23:17.923Z,72.44
2023-05-14T03:24:17.921Z,72.75
2023-05-14T03:25:17.912Z,72.75
2023-05-14T03:26:17.901Z,72.68
2023-05-14T03:27:17.899Z,73.10
2023-05-14T03:28:17.863Z,72.78
2023-05-14T03:29:17.850Z,73.30
2023-05-14T03:30:17.850Z,73.19
2023-05-14T03:31:17.905Z,73.19
2023-05-14T03:32:17.840Z,73.10
2023-05-14T03:33:17.889Z,73.19
2023-05-14T03:34:17.797Z,73.10
2023-05-14T03:35:17.789Z,73.19
2023-05-14T03:36:17.775Z,73.19
2023-05-14T03:37:17.752Z,73.30
2023-05-14T03:38:17.733Z,73.33
2023-05-14T03:39:17.728Z,73.64
2023-05-14T03:40:17.711Z,73.85
2023-05-14T03:41:17.744Z,73.95
2023-05-14T03:42:17.678Z,73.95
2023-05-14T03:43:17.663Z,74.05
2023-05-14T03:44:17.645Z,74.15
2023-05-14T03:45:17.660Z,74.15
2023-05-14T03:46:17.635Z,74.15
2023-05-14T03:47:17.621Z,74.36
2023-05-14T03:48:17.687Z,74.46
2023-05-14T03:49:17.599Z,74.36
2023-05-14T03:50:17.591Z,74.67
2023-05-14T03:51:17.558Z,74.77
2023-05-14T03:52:17.552Z,75.18
2023-05-14T03:53:17.553Z,74.98
2023-05-14T03:54:17.527Z,74.98
2023-05-14T03:55:17.531Z,74.98
2023-05-14T03:56:17.517Z,75.18
2023-05-14T03:57:17.494Z,75.18
2023-05-14T03:58:17.504Z,74.98
2023-05-14T03:59:17.488Z,74.98
2023-05-14T04:00:17.463Z,75.18
2023-05-14T04:01:17.438Z,75.29
2023-05-14T04:02:17.453Z,75.18
2023-05-14T04:03:17.501Z,75.18
2023-05-14T04:04:17.448Z,74.87
2023-05-14T04:05:17.387Z,75.08
2023-05-14T04:06:17.365Z,75.59
2023-05-14T04:07:17.371Z,75.70
2023-05-14T04:08:17.337Z,75.70
2023-05-14T04:09:17.343Z,75.80
2023-05-14T04:10:17.303Z,76.21
2023-05-14T04:11:17.301Z,76.00
2023-05-14T04:12:17.288Z,75.59
2023-05-14T04:13:17.313Z,75.70
2023-05-14T04:14:17.266Z,76.00
2023-05-14T04:15:17.243Z,75.70
2023-05-14T04:16:17.263Z,75.80
2023-05-14T04:17:17.219Z,75.90
2023-05-14T04:18:17.223Z,76.21
2023-05-14T04:19:17.322Z,75.90
2023-05-14T04:20:17.188Z,76.10
2023-05-14T04:21:17.176Z,76.21
2023-05-14T04:22:17.180Z,76.31
2023-05-14T04:23:17.153Z,76.10
2023-05-14T04:24:17.136Z,76.62
2023-05-14T04:25:17.116Z,76.51
2023-05-14T04:26:17.160Z,76.51
2023-05-14T04:27:17.115Z,76.51
2023-05-14T04:28:17.104Z,76.72
2023-05-14T04:29:17.076Z,76.72
2023-05-14T04:30:17.041Z,76.42
2023-05-14T04:31:17.069Z,76.82
2023-05-14T04:32:17.042Z,76.93
2023-05-14T04:33:17.011Z,76.82
2023-05-14T04:34:17.002Z,76.82
2023-05-14T04:35:16.990Z,76.79
2023-05-14T04:36:16.965Z,76.72
2023-05-14T04:37:16.976Z,76.38
2023-05-14T04:38:16.942Z,75.76
2023-05-14T04:39:16.933Z,75.35
2023-05-14T04:40:16.921Z,76.17
2023-05-14T04:41:16.918Z,76.58
2023-05-14T04:42:16.911Z,75.87
2023-05-14T04:43:16.878Z,75.87
2023-05-14T04:44:16.867Z,75.45
2023-05-14T04:45:16.849Z,75.56
2023-05-14T04:46:16.900Z,75.45
2023-05-14T04:47:16.878Z,75.32
2023-05-14T04:48:16.826Z,75.21
2023-05-14T04:49:16.804Z,74.91
2023-05-14T04:50:16.825Z,75.01
2023-05-14T04:51:16.813Z,75.11
2023-05-14T04:52:16.758Z,75.32
2023-05-14T04:53:17.333Z,75.83
2023-05-14T04:54:16.816Z,76.20
2023-05-14T04:55:16.760Z,76.41
2023-05-14T04:56:16.754Z,76.41
2023-05-14T04:57:16.710Z,76.62
2023-05-14T04:58:16.690Z,76.92
2023-05-14T04:59:16.690Z,76.78
2023-05-14T05:00:16.675Z,76.99
2023-05-14T05:01:16.685Z,76.99
2023-05-14T05:02:16.633Z,76.95
2023-05-14T05:03:16.682Z,77.16
2023-05-14T05:04:16.705Z,76.95
2023-05-14T05:05:16.626Z,77.12
2023-05-14T05:06:16.583Z,77.12
2023-05-14T05:07:16.571Z,77.12
2023-05-14T05:08:16.558Z,76.92
2023-05-14T05:09:16.565Z,76.72
2023-05-14T05:10:16.546Z,76.31
2023-05-14T05:11:16.522Z,76.20
2023-05-14T05:12:16.511Z,76.10
2023-05-14T05:13:16.502Z,76.10
2023-05-14T05:14:16.500Z,75.86
2023-05-14T05:15:16.470Z,75.86
2023-05-14T05:16:16.516Z,76.17
2023-05-14T05:17:16.447Z,75.86
2023-05-14T05:18:16.426Z,75.86
2023-05-14T05:19:16.495Z,75.55
2023-05-14T05:20:16.430Z,75.62
2023-05-14T05:21:16.397Z,75.82
2023-05-14T05:22:16.372Z,75.93
2023-05-14T05:23:16.376Z,75.93
2023-05-14T05:24:16.366Z,76.09
2023-05-14T05:25:16.346Z,75.99
2023-05-14T05:26:16.322Z,76.09
2023-05-14T05:27:16.307Z,76.06
2023-05-14T05:28:16.296Z,76.16
2023-05-14T05:29:16.295Z,76.06
2023-05-14T05:30:16.275Z,75.92
2023-05-14T05:31:17.669Z,75.92
2023-05-14T05:32:16.235Z,76.03
2023-05-14T05:33:16.245Z,75.92
2023-05-14T05:34:16.211Z,75.89
2023-05-14T05:35:16.209Z,75.99
2023-05-14T05:36:16.198Z,75.89
2023-05-14T05:37:16.197Z,75.85
2023-05-14T05:38:16.179Z,75.44
2023-05-14T05:39:16.154Z,75.34
2023-05-14T05:40:16.131Z,75.00
2023-05-14T05:41:16.127Z,74.69
2023-05-14T05:42:16.135Z,74.49
2023-05-14T05:43:16.109Z,74.29
2023-05-14T05:44:16.093Z,74.38
2023-05-14T05:45:16.069Z,74.38
2023-05-14T05:46:16.078Z,74.18
2023-05-14T05:47:16.062Z,73.98
2023-05-14T05:48:16.051Z,73.77
2023-05-14T05:49:16.015Z,73.57
2023-05-14T05:50:16.022Z,73.67
2023-05-14T05:51:16.034Z,73.77
2023-05-14T05:52:15.992Z,73.67
2023-05-14T05:53:15.971Z,73.84
2023-05-14T05:54:15.951Z,73.74
2023-05-14T05:55:15.942Z,73.74
2023-05-14T05:56:15.940Z,73.64
2023-05-14T05:57:15.930Z,73.54
2023-05-14T05:58:15.924Z,73.33
2023-05-14T05:59:15.897Z,73.54
2023-05-14T06:00:15.870Z,73.64
2023-05-14T06:01:15.877Z,73.43
2023-05-14T06:02:15.872Z,73.74
2023-05-14T06:03:15.891Z,73.74
2023-05-14T06:04:15.821Z,73.74
2023-05-14T06:05:15.906Z,73.84
2023-05-14T06:06:15.819Z,73.71
2023-05-14T06:07:15.781Z,73.50
2023-05-14T06:08:15.784Z,73.60
2023-05-14T06:09:15.758Z,73.50
2023-05-14T06:10:15.784Z,73.60
2023-05-14T06:11:15.731Z,73.30
2023-05-14T06:12:15.722Z,73.06
2023-05-14T06:13:15.711Z,73.16
2023-05-14T06:14:15.692Z,73.16
2023-05-14T06:15:15.697Z,73.23
2023-05-14T06:16:15.700Z,73.54
2023-05-14T06:17:15.658Z,73.40
2023-05-14T06:18:15.641Z,73.50
2023-05-14T06:19:15.747Z,73.30
2023-05-14T06:20:15.623Z,72.99
2023-05-14T06:21:15.605Z,72.99
2023-05-14T06:22:15.588Z,72.96
2023-05-14T06:23:15.578Z,72.75
2023-05-14T06:24:15.595Z,72.65
2023-05-14T06:25:15.556Z,72.86
2023-05-14T06:26:15.535Z,72.75
2023-05-14T06:27:15.548Z,72.55
2023-05-14T06:28:15.514Z,72.31
2023-05-14T06:29:15.508Z,72.41
2023-05-14T06:30:15.502Z,72.21
2023-05-14T06:31:15.479Z,72.01
2023-05-14T06:32:15.782Z,71.91
2023-05-14T06:33:15.453Z,71.60
2023-05-14T06:34:15.446Z,71.57
2023-05-14T06:35:15.414Z,71.26
2023-05-14T06:36:15.407Z,71.06
2023-05-14T06:37:15.405Z,70.86
2023-05-14T06:38:15.401Z,70.55
2023-05-14T06:39:15.386Z,70.45
2023-05-14T06:40:15.346Z,70.55
2023-05-14T06:41:15.334Z,70.55
2023-05-14T06:42:15.317Z,70.55
2023-05-14T06:43:15.325Z,70.55
2023-05-14T06:44:15.304Z,70.42
2023-05-14T06:45:15.302Z,70.42
2023-05-14T06:46:15.287Z,70.42
2023-05-14T06:47:15.289Z,70.42
2023-05-14T06:48:15.312Z,70.42
2023-05-14T06:49:15.335Z,70.48
2023-05-14T06:50:15.220Z,70.15
2023-05-14T06:51:15.220Z,70.04
2023-05-14T06:52:15.202Z,70.32
2023-05-14T06:53:15.323Z,70.56
2023-05-14T06:54:15.165Z,69.61
2023-05-14T06:55:15.168Z,68.97
2023-05-14T06:56:15.148Z,68.94
2023-05-14T06:57:15.147Z,68.50
2023-05-14T06:58:15.113Z,68.23
2023-05-14T06:59:15.117Z,67.49
2023-05-14T07:00:15.087Z,66.75
2023-05-14T07:01:15.117Z,65.84
2023-05-14T07:02:15.077Z,65.24
2023-05-14T07:03:15.082Z,64.94
2023-05-14T07:04:15.070Z,64.73
2023-05-14T07:05:15.027Z,64.84
2023-05-14T07:06:15.017Z,64.94
2023-05-14T07:07:14.997Z,65.21
2023-05-14T07:08:14.980Z,64.98
2023-05-14T07:09:14.976Z,63.93
2023-05-14T07:10:14.954Z,63.23
2023-05-14T07:11:14.964Z,62.90
2023-05-14T07:12:14.926Z,62.49
2023-05-14T07:13:14.929Z,62.52
2023-05-14T07:14:14.902Z,62.43
2023-05-14T07:15:14.907Z,62.43
2023-05-14T07:16:14.888Z,62.73
2023-05-14T07:17:14.962Z,62.73
2023-05-14T07:18:14.886Z,62.73
2023-05-14T07:19:14.860Z,62.63
2023-05-14T07:20:14.847Z,62.52
2023-05-14T07:21:14.814Z,62.43
2023-05-14T07:22:14.805Z,62.63
2023-05-14T07:23:14.788Z,62.43
2023-05-14T07:24:14.771Z,62.02
2023-05-14T07:25:14.778Z,62.02
2023-05-14T07:26:14.755Z,62.02
2023-05-14T07:27:14.730Z,61.82
2023-05-14T07:28:14.770Z,61.82
2023-05-14T07:29:14.737Z,61.82
2023-05-14T07:30:14.712Z,61.61
2023-05-14T07:31:14.744Z,61.59
2023-05-14T07:32:15.726Z,61.99
2023-05-14T07:33:14.649Z,62.19
2023-05-14T07:34:14.649Z,62.40
2023-05-14T07:35:14.625Z,61.89
2023-05-14T07:36:14.618Z,61.66
2023-05-14T07:37:14.600Z,61.56
2023-05-14T07:38:14.596Z,61.46
2023-05-14T07:39:14.593Z,60.93
2023-05-14T07:40:14.574Z,60.93
2023-05-14T07:41:14.567Z,61.00
2023-05-14T07:42:24.590Z,60.89
2023-05-14T07:43:15.545Z,60.39
2023-05-14T07:44:14.523Z,59.48
2023-05-14T07:45:14.495Z,59.36
2023-05-14T07:46:14.486Z,59.26
2023-05-14T07:47:14.520Z,58.95
2023-05-14T07:48:14.575Z,58.75
2023-05-14T07:49:14.441Z,58.86
2023-05-14T07:50:14.435Z,58.86
2023-05-14T07:51:14.412Z,58.83
2023-05-14T07:52:14.401Z,59.03
2023-05-14T07:53:14.409Z,58.90
2023-05-14T07:54:14.377Z,58.90
2023-05-14T07:55:14.353Z,59.10
2023-05-14T07:56:14.349Z,59.00
2023-05-14T07:57:14.347Z,58.60
2023-05-14T07:58:14.330Z,58.60
2023-05-14T07:59:14.310Z,58.70
2023-05-14T08:00:14.303Z,58.80
2023-05-14T08:01:14.289Z,58.80
2023-05-14T08:02:14.345Z,58.60
2023-05-14T08:03:14.381Z,58.40
2023-05-14T08:04:14.298Z,58.29
2023-05-14T08:05:14.248Z,58.50
2023-05-14T08:06:14.218Z,58.70
2023-05-14T08:07:14.218Z,58.37
2023-05-14T08:08:14.203Z,58.17
2023-05-14T08:09:14.182Z,58.17
2023-05-14T08:10:14.168Z,58.37
2023-05-14T08:11:14.179Z,58.14
2023-05-14T08:12:14.167Z,57.84
2023-05-14T08:13:14.144Z,58.04
2023-05-14T08:14:14.123Z,57.94
2023-05-14T08:15:14.100Z,57.64
2023-05-14T08:16:14.106Z,57.54
2023-05-14T08:17:14.166Z,57.21
2023-05-14T08:18:14.068Z,57.31
2023-05-14T08:19:14.275Z,56.91
2023-05-14T08:20:14.055Z,56.71
2023-05-14T08:21:14.033Z,55.91
2023-05-14T08:22:14.012Z,55.30
2023-05-14T08:23:14.113Z,55.08
2023-05-14T08:24:13.979Z,54.47
2023-05-14T08:25:13.990Z,54.17
2023-05-14T08:26:13.990Z,52.39
2023-05-14T08:27:13.940Z,52.69
2023-05-14T08:28:13.929Z,53.09
2023-05-14T08:29:20.933Z,52.59
2023-05-14T08:30:20.974Z,52.39
2023-05-14T08:31:20.934Z,52.80
2023-05-14T08:32:22.718Z,52.77
2023-05-14T08:33:14.863Z,52.77
2023-05-14T08:34:13.862Z,53.07
2023-05-14T08:35:13.856Z,53.27
2023-05-14T08:36:13.836Z,52.77
2023-05-14T08:37:13.811Z,53.07
2023-05-14T08:38:13.814Z,52.97
2023-05-14T08:39:13.799Z,52.87
2023-05-14T08:40:13.797Z,52.77
2023-05-14T08:41:13.764Z,52.57
2023-05-14T08:42:13.827Z,52.57
2023-05-14T08:43:13.738Z,52.26
2023-05-14T08:44:13.738Z,52.37
2023-05-14T08:45:13.722Z,52.47
2023-05-14T08:46:13.704Z,52.47
2023-05-14T08:47:13.685Z,52.67
2023-05-14T08:48:13.719Z,52.87
2023-05-14T08:49:13.749Z,53.07
2023-05-14T08:50:13.641Z,52.77
2023-05-14T08:51:13.628Z,52.87
2023-05-14T08:52:13.644Z,52.75
2023-05-14T08:53:13.619Z,52.94
2023-05-14T08:54:13.608Z,53.14
2023-05-14T08:55:13.576Z,53.05
2023-05-14T08:56:13.571Z,53.05
2023-05-14T08:57:13.553Z,52.92
2023-05-14T08:58:13.560Z,52.72
2023-05-14T08:59:13.523Z,52.62
2023-05-14T09:00:13.554Z,52.52
2023-05-14T09:01:13.504Z,52.39
2023-05-14T09:02:13.634Z,52.69
2023-05-14T09:03:13.559Z,52.69
2023-05-14T09:04:13.491Z,52.37
2023-05-14T09:05:13.499Z,51.67
2023-05-14T09:06:13.458Z,51.34
2023-05-14T09:07:13.433Z,51.14
2023-05-14T09:08:13.417Z,50.54
2023-05-14T09:09:13.395Z,50.32
2023-05-14T09:10:13.399Z,50.42
2023-05-14T09:11:13.369Z,50.29
2023-05-14T09:12:13.374Z,50.20
2023-05-14T09:13:13.343Z,50.29
2023-05-14T09:14:13.333Z,49.87
2023-05-14T09:15:13.311Z,50.07
2023-05-14T09:16:13.370Z,50.07
2023-05-14T09:17:13.309Z,50.47
2023-05-14T09:18:13.313Z,50.24
2023-05-14T09:19:13.321Z,50.15
2023-05-14T09:20:13.262Z,49.85
2023-05-14T09:21:13.244Z,49.25
2023-05-14T09:22:13.246Z,48.85
2023-05-14T09:23:13.213Z,48.85
2023-05-14T09:24:13.211Z,48.65
2023-05-14T09:25:13.240Z,48.55
2023-05-14T09:26:13.192Z,47.95
2023-05-14T09:27:13.162Z,48.14
2023-05-14T09:28:13.161Z,48.02
2023-05-14T09:29:13.136Z,47.63
2023-05-14T09:30:13.142Z,48.13
2023-05-14T09:31:13.158Z,48.32
2023-05-14T09:32:13.108Z,48.22
2023-05-14T09:33:13.083Z,48.13
2023-05-14T09:34:13.066Z,48.13
2023-05-14T09:35:13.079Z,48.13
2023-05-14T09:36:13.068Z,47.80
2023-05-14T09:37:13.046Z,47.90
2023-05-14T09:38:13.045Z,47.90
2023-05-14T09:39:13.008Z,47.78
2023-05-14T09:40:13.013Z,46.96
2023-05-14T09:41:13.003Z,46.73
2023-05-14T09:42:12.972Z,46.81
2023-05-14T09:43:13.002Z,46.77
2023-05-14T09:44:12.961Z,46.45
2023-05-14T09:45:12.935Z,46.23
2023-05-14T09:46:12.920Z,45.63
2023-05-14T09:47:12.953Z,45.01
2023-05-14T09:48:12.970Z,44.59
2023-05-14T09:49:12.902Z,44.29
2023-05-14T09:50:13.134Z,43.78
2023-05-14T09:51:12.862Z,42.77
2023-05-14T09:52:12.846Z,42.45
2023-05-14T09:53:12.837Z,42.03
2023-05-14T09:54:12.834Z,41.60
2023-05-14T09:55:12.840Z,41.57
2023-05-14T09:56:12.791Z,41.87
2023-05-14T09:57:12.786Z,40.48
2023-05-14T09:58:12.789Z,40.86
2023-05-14T09:59:12.786Z,41.31
2023-05-14T10:00:12.810Z,40.41
2023-05-14T10:01:12.776Z,39.00
2023-05-14T10:02:12.730Z,38.59
2023-05-14T10:03:12.738Z,39.65
2023-05-14T10:04:12.793Z,39.73
2023-05-14T10:05:12.671Z,38.93
2023-05-14T10:06:12.674Z,37.83
2023-05-14T10:07:12.657Z,37.04
2023-05-14T10:08:12.681Z,37.93
2023-05-14T10:09:12.681Z,37.34
2023-05-14T10:10:12.608Z,36.55
2023-05-14T10:11:12.611Z,37.24
2023-05-14T10:12:12.593Z,37.45
2023-05-14T10:13:12.602Z,35.56
2023-05-14T10:14:12.557Z,35.56
2023-05-14T10:15:12.531Z,34.75
2023-05-14T10:16:12.530Z,34.84
2023-05-14T10:17:12.672Z,34.72
2023-05-14T10:18:12.586Z,35.00
2023-05-14T10:19:12.553Z,35.30
2023-05-14T10:20:12.482Z,34.90
2023-05-14T10:21:12.473Z,35.30
2023-05-14T10:22:12.487Z,35.38
2023-05-14T10:23:12.457Z,35.28
2023-05-14T10:24:12.432Z,34.38
2023-05-14T10:25:12.421Z,33.70
2023-05-14T10:26:12.398Z,33.61
2023-05-14T10:27:12.389Z,33.29
2023-05-14T10:28:12.372Z,33.89
2023-05-14T10:29:12.356Z,33.00
2023-05-14T10:30:12.353Z,32.92
2023-05-14T10:31:12.370Z,33.62
2023-05-14T10:32:12.342Z,33.44
2023-05-14T10:33:12.426Z,33.46
2023-05-14T10:34:12.302Z,33.58
2023-05-14T10:35:12.283Z,33.49
2023-05-14T10:36:12.291Z,33.58
2023-05-14T10:37:12.285Z,33.28
2023-05-14T10:38:12.241Z,33.36
2023-05-14T10:39:12.231Z,32.56
2023-05-14T10:40:12.230Z,30.41
2023-05-14T10:41:12.214Z,30.31
2023-05-14T10:42:12.200Z,30.80
2023-05-14T10:43:12.218Z,32.10
2023-05-14T10:44:12.169Z,32.29
2023-05-14T10:45:12.173Z,31.51
2023-05-14T10:46:12.200Z,31.00
2023-05-14T10:47:12.130Z,30.59
2023-05-14T10:48:12.211Z,30.59
2023-05-14T10:49:12.106Z,30.59
2023-05-14T10:50:12.104Z,30.18
2023-05-14T10:51:12.177Z,29.79
2023-05-14T10:52:12.075Z,29.49
2023-05-14T10:53:12.059Z,28.70
2023-05-14T10:54:12.052Z,28.61
2023-05-14T10:55:12.036Z,28.41
2023-05-14T10:56:12.026Z,27.33
2023-05-14T10:57:12.101Z,27.54
2023-05-14T10:58:11.984Z,28.52
2023-05-14T10:59:11.984Z,28.63
2023-05-14T11:00:11.975Z,28.82
2023-05-14T11:01:11.964Z,28.42
2023-05-14T11:02:11.986Z,28.63
2023-05-14T11:03:11.975Z,28.72
2023-05-14T11:04:12.022Z,28.23
2023-05-14T11:05:11.886Z,27.26
2023-05-14T11:06:11.894Z,27.56
2023-05-14T11:07:11.866Z,27.75
2023-05-14T11:08:11.894Z,28.16
2023-05-14T11:09:11.854Z,29.05
2023-05-14T11:10:11.836Z,27.27
2023-05-14T11:11:11.825Z,27.86
2023-05-14T11:12:11.805Z,26.79
2023-05-14T11:13:11.811Z,28.37
2023-05-14T11:14:11.873Z,29.16
2023-05-14T11:15:11.801Z,29.46
2023-05-14T11:16:22.549Z,29.94
2023-05-14T11:17:12.802Z,30.22
2023-05-14T11:18:11.817Z,30.32
2023-05-14T11:19:11.785Z,29.53
2023-05-14T11:20:11.784Z,29.24
2023-05-14T11:21:11.711Z,28.45
2023-05-14T11:22:11.671Z,29.24
2023-05-14T11:23:11.679Z,29.44
2023-05-14T11:24:11.723Z,29.44
2023-05-14T11:25:11.692Z,29.34
2023-05-14T11:26:11.708Z,30.03
2023-05-14T11:27:11.617Z,30.22
2023-05-14T11:28:11.609Z,29.83
2023-05-14T11:29:11.589Z,29.53
2023-05-14T11:30:11.579Z,30.62
2023-05-14T11:31:11.677Z,30.11
2023-05-14T11:32:11.593Z,29.72
2023-05-14T11:33:11.599Z,30.51
2023-05-14T11:34:11.523Z,30.51
2023-05-14T11:35:11.531Z,29.82
2023-05-14T11:36:11.544Z,29.82
2023-05-14T11:37:11.494Z,29.44
2023-05-14T11:38:11.564Z,29.55
2023-05-14T11:39:11.460Z,29.96
2023-05-14T11:40:11.478Z,30.16
2023-05-14T11:41:11.496Z,30.57
2023-05-14T11:42:11.600Z,30.78
2023-05-14T11:43:11.495Z,30.58
2023-05-14T11:44:11.399Z,30.88
2023-05-14T11:45:11.390Z,31.59
2023-05-14T11:46:11.467Z,30.99
2023-05-14T11:47:11.426Z,30.40
2023-05-14T11:48:11.443Z,30.71
2023-05-14T11:49:11.542Z,30.51
2023-05-14T11:50:11.332Z,31.02
2023-05-14T11:51:11.328Z,30.73
2023-05-14T11:52:11.282Z,31.04
2023-05-14T11:53:11.322Z,31.63
2023-05-14T11:54:11.257Z,31.94
2023-05-14T11:55:11.276Z,31.84
2023-05-14T11:56:11.338Z,31.66
2023-05-14T11:57:11.223Z,31.66
2023-05-14T11:58:11.202Z,32.45
2023-05-14T11:59:11.207Z,33.16
2023-05-14T12:00:11.213Z,33.45
2023-05-14T12:01:11.185Z,33.56
2023-05-14T12:02:11.191Z,33.37
2023-05-14T12:03:11.239Z,33.37
2023-05-14T12:04:11.181Z,33.77
2023-05-14T12:05:11.127Z,33.98
2023-05-14T12:06:11.098Z,33.69
2023-05-14T12:07:11.175Z,33.98
2023-05-14T12:08:11.097Z,33.98
2023-05-14T12:09:11.101Z,34.10
2023-05-14T12:10:11.070Z,34.50
2023-05-14T12:11:11.123Z,34.69
2023-05-14T12:12:11.068Z,34.99
2023-05-14T12:13:11.042Z,34.91
2023-05-14T12:14:11.003Z,34.61
2023-05-14T12:15:10.986Z,34.52
2023-05-14T12:16:11.037Z,34.71
2023-05-14T12:17:10.956Z,35.13
2023-05-14T12:18:23.038Z,35.42
2023-05-14T12:19:12.012Z,35.52
2023-05-14T12:20:10.920Z,35.92
2023-05-14T12:21:10.911Z,35.82
2023-05-14T12:22:10.890Z,35.82
2023-05-14T12:23:10.890Z,36.23
2023-05-14T12:24:10.900Z,36.23
2023-05-14T12:25:10.849Z,36.13
2023-05-14T12:26:10.841Z,36.43
2023-05-14T12:27:10.832Z,36.53
2023-05-14T12:28:10.855Z,36.43
2023-05-14T12:29:10.814Z,36.63
2023-05-14T12:30:20.739Z,36.45
2023-05-14T12:31:11.791Z,36.45
2023-05-14T12:32:10.757Z,36.75
2023-05-14T12:33:10.822Z,36.85
2023-05-14T12:34:10.733Z,36.75
2023-05-14T12:35:10.726Z,36.35
2023-05-14T12:36:21.395Z,36.75
2023-05-14T12:37:11.716Z,36.65
2023-05-14T12:38:10.752Z,36.87
2023-05-14T12:39:10.677Z,36.87
2023-05-14T12:40:10.681Z,36.87
2023-05-14T12:41:10.645Z,36.96
2023-05-14T12:42:10.645Z,37.26
2023-05-14T12:43:10.635Z,37.26
2023-05-14T12:44:10.598Z,37.16
2023-05-14T12:45:10.610Z,36.57
2023-05-14T12:46:10.579Z,36.57
2023-05-14T12:47:10.627Z,36.66
2023-05-14T12:48:10.641Z,36.25
2023-05-14T12:49:10.551Z,35.66
2023-05-14T12:50:10.529Z,35.85
2023-05-14T12:51:10.587Z,36.25
2023-05-14T12:53:10.554Z,35.85